KBOI

Boise Air Terminal / Gowen Field Airport

Boise, Idaho, USA
METAR KBOI 201953Z 33010G21KT 7SM CLR 32/05 A2987 RMK AO2 SLP080 T03170050
Observed Flight Rules
Aug-20 @ 19:53 UTC (35 minutes ago) Visual Flight Rules
Wind Visibility Clouds
330° at 10 knots
 Gusting to 21 knots
7 miles
  • Clear skies
Temperatures Readings
Current 32°C / 90°F
Dewpoint 5°C / 41°F
Humidity 18%
Altimeter 29.87" Hg
Pressure 1008 hPa
Elevation 875
METAR KBOI 201953Z 33010G21KT 7SM CLR 32/05 A2987 RMK AO2 SLP080 T03170050
Observed Flight Rules
Aug-20 @ 19:53 UTC
(35 minutes ago)
VFR
Wind Visibility
330° at 10 knots
 Gusting to 21 knots
7 miles
Clouds
  • Clear skies
Temperature Dewpoint
32°C / 90°F 5°C / 41°F
Humidity Altimeter Pressure
18% 29.87" Hg 1008 hPa